createdAt,value
2023-03-27T00:01:26.191Z,2.26
2023-03-27T00:03:53.611Z,2.23
2023-03-27T00:06:21.890Z,2.19
2023-03-27T00:08:51.366Z,2.15
2023-03-27T00:11:24.793Z,2.17
2023-03-27T00:13:54.419Z,2.20
2023-03-27T00:16:24.169Z,2.19
2023-03-27T00:18:51.362Z,2.22
2023-03-27T00:21:19.366Z,2.22
2023-03-27T00:23:47.042Z,2.19
2023-03-27T00:26:14.444Z,2.15
2023-03-27T00:28:42.194Z,2.14
2023-03-27T00:31:15.654Z,2.14
2023-03-27T00:33:43.602Z,2.18
2023-03-27T00:36:11.494Z,2.21
2023-03-27T00:38:39.871Z,2.24
2023-03-27T00:41:08.283Z,2.28
2023-03-27T00:43:43.514Z,2.33
2023-03-27T00:46:31.641Z,2.34
2023-03-27T00:49:05.897Z,2.37
2023-03-27T00:51:36.794Z,2.40
2023-03-27T00:54:05.387Z,2.45
2023-03-27T00:56:34.064Z,2.49
2023-03-27T00:59:07.155Z,2.57
2023-03-27T01:01:34.839Z,2.61
2023-03-27T01:04:07.478Z,2.64
2023-03-27T01:06:35.449Z,2.69
2023-03-27T01:09:04.648Z,2.67
2023-03-27T01:12:06.107Z,2.68
2023-03-27T01:14:54.158Z,2.79
2023-03-27T01:18:17.462Z,2.86
2023-03-27T01:21:34.635Z,2.93
2023-03-27T01:25:16.737Z,2.97
2023-03-27T01:28:35.672Z,3.00
2023-03-27T01:31:24.453Z,3.04
2023-03-27T01:34:32.529Z,3.04
2023-03-27T01:37:18.726Z,3.04
2023-03-27T01:40:00.876Z,3.01
2023-03-27T01:42:59.134Z,2.99
2023-03-27T01:45:47.025Z,3.01
2023-03-27T01:48:28.357Z,3.03
2023-03-27T01:51:08.109Z,3.11
2023-03-27T01:53:55.139Z,3.19
2023-03-27T01:56:32.849Z,3.22
2023-03-27T01:59:11.255Z,3.25
2023-03-27T02:01:45.853Z,3.26
2023-03-27T02:04:21.691Z,3.28
2023-03-27T02:06:57.482Z,3.29
2023-03-27T02:09:37.406Z,3.26
2023-03-27T02:12:31.028Z,3.27
2023-03-27T02:15:22.997Z,3.27
2023-03-27T02:18:10.052Z,3.35
2023-03-27T02:20:41.079Z,3.36
2023-03-27T02:23:08.360Z,3.32
2023-03-27T02:25:45.625Z,3.27
2023-03-27T02:28:36.927Z,3.25
2023-03-27T02:32:01.543Z,3.20
2023-03-27T02:34:58.804Z,3.12
2023-03-27T02:38:13.563Z,3.05
2023-03-27T02:41:03.879Z,2.97
2023-03-27T02:44:46.264Z,2.82
2023-03-27T02:47:34.931Z,2.61
2023-03-27T02:50:09.644Z,2.46
2023-03-27T02:52:45.570Z,2.38
2023-03-27T02:55:26.273Z,2.27
2023-03-27T02:58:03.291Z,2.17
2023-03-27T03:00:48.145Z,2.09
2023-03-27T03:03:53.659Z,2.02
2023-03-27T03:06:42.508Z,1.99
2023-03-27T03:09:10.915Z,1.96
2023-03-27T03:11:48.453Z,1.93
2023-03-27T03:14:21.457Z,1.89
2023-03-27T03:16:48.327Z,1.87
2023-03-27T03:19:15.140Z,1.86
2023-03-27T03:21:42.104Z,1.83
2023-03-27T03:24:12.333Z,1.81
2023-03-27T03:26:40.043Z,1.77
2023-03-27T03:29:07.093Z,1.75
2023-03-27T03:31:46.760Z,1.72
2023-03-27T03:34:19.054Z,1.77
2023-03-27T03:36:49.969Z,1.79
2023-03-27T03:39:22.201Z,1.75
2023-03-27T03:41:50.329Z,1.72
2023-03-27T03:44:17.858Z,1.73
2023-03-27T03:46:44.856Z,1.74
2023-03-27T03:49:12.119Z,1.71
2023-03-27T03:51:39.010Z,1.70
2023-03-27T03:54:07.055Z,1.68
2023-03-27T03:56:34.549Z,1.65
2023-03-27T03:59:01.554Z,1.63
2023-03-27T04:01:29.120Z,1.61
2023-03-27T04:04:00.731Z,1.60
2023-03-27T04:06:37.724Z,1.58
2023-03-27T04:09:06.022Z,1.56
2023-03-27T04:11:50.968Z,1.48
2023-03-27T04:14:36.434Z,1.43
2023-03-27T04:17:12.202Z,1.38
2023-03-27T04:19:39.081Z,1.34
2023-03-27T04:22:07.047Z,1.33
2023-03-27T04:24:36.112Z,1.33
2023-03-27T04:27:03.017Z,1.34
2023-03-27T04:29:54.187Z,1.38
2023-03-27T04:33:00.124Z,1.38
2023-03-27T04:36:05.363Z,1.39
2023-03-27T04:38:55.600Z,1.45
2023-03-27T04:41:22.672Z,1.51
2023-03-27T04:43:49.487Z,1.57
2023-03-27T04:46:16.697Z,1.57
2023-03-27T04:48:44.561Z,1.51
2023-03-27T04:51:21.504Z,1.50
2023-03-27T04:53:48.502Z,1.54
2023-03-27T04:56:16.207Z,1.51
2023-03-27T04:58:45.741Z,1.50
2023-03-27T05:01:17.179Z,1.50
2023-03-27T05:04:02.832Z,1.49
2023-03-27T05:06:47.549Z,1.46
2023-03-27T05:09:17.064Z,1.41
2023-03-27T05:11:44.846Z,1.38
2023-03-27T05:14:11.724Z,1.35
2023-03-27T05:16:41.275Z,1.30
2023-03-27T05:19:11.288Z,1.30
2023-03-27T05:21:43.784Z,1.33
2023-03-27T05:24:12.040Z,1.33
2023-03-27T05:26:39.586Z,1.35
2023-03-27T05:29:08.757Z,1.38
2023-03-27T05:31:39.600Z,1.38
2023-03-27T05:34:39.065Z,1.37
2023-03-27T05:37:10.452Z,1.39
2023-03-27T05:39:57.236Z,1.41
2023-03-27T05:42:24.145Z,1.41
2023-03-27T05:44:51.701Z,1.42
2023-03-27T05:47:20.855Z,1.51
2023-03-27T05:49:48.248Z,1.65
2023-03-27T05:52:16.012Z,1.78
2023-03-27T05:54:42.908Z,1.87
2023-03-27T05:57:11.907Z,1.95
2023-03-27T05:59:40.721Z,2.03
2023-03-27T06:02:21.000Z,2.08
2023-03-27T06:05:01.341Z,2.14
2023-03-27T06:07:31.739Z,2.28
2023-03-27T06:10:03.363Z,2.49
2023-03-27T06:12:34.973Z,2.76
2023-03-27T06:15:11.449Z,2.88
2023-03-27T06:17:47.922Z,2.93
2023-03-27T06:20:15.563Z,2.97
2023-03-27T06:23:00.027Z,2.97
2023-03-27T06:25:34.482Z,2.98
2023-03-27T06:28:04.839Z,2.99
2023-03-27T06:30:38.388Z,2.98
2023-03-27T06:33:29.739Z,3.01
2023-03-27T06:36:02.272Z,3.03
2023-03-27T06:38:32.939Z,3.02
2023-03-27T06:41:01.383Z,2.94
2023-03-27T06:43:54.270Z,2.86
2023-03-27T06:46:42.797Z,2.84
2023-03-27T06:49:22.153Z,2.83
2023-03-27T06:51:49.454Z,2.82
2023-03-27T06:54:19.729Z,2.97
2023-03-27T06:56:50.553Z,3.10
2023-03-27T06:59:22.425Z,3.13
2023-03-27T07:01:55.098Z,3.27
2023-03-27T07:04:27.704Z,3.58
2023-03-27T07:07:01.259Z,3.77
2023-03-27T07:09:32.945Z,3.96
2023-03-27T07:12:04.325Z,3.99
2023-03-27T07:14:32.492Z,4.26
2023-03-27T07:17:03.362Z,4.52
2023-03-27T07:19:50.503Z,5.09
2023-03-27T07:22:19.993Z,5.49
2023-03-27T07:24:47.126Z,5.87
2023-03-27T07:27:14.921Z,6.08
2023-03-27T07:29:42.835Z,6.45
2023-03-27T07:32:22.280Z,6.66
2023-03-27T07:34:56.965Z,6.11
2023-03-27T07:37:27.444Z,5.73
2023-03-27T07:40:13.400Z,5.29
2023-03-27T07:42:46.075Z,4.90
2023-03-27T07:45:21.327Z,5.06
2023-03-27T07:47:51.417Z,5.68
2023-03-27T07:50:21.806Z,5.69
2023-03-27T07:52:49.715Z,5.61
2023-03-27T07:55:19.045Z,5.49
2023-03-27T07:58:02.532Z,5.37
2023-03-27T08:00:35.292Z,5.15
2023-03-27T08:03:12.172Z,5.01
2023-03-27T08:05:44.231Z,4.93
2023-03-27T08:08:16.159Z,4.85
2023-03-27T08:10:54.843Z,4.72
2023-03-27T08:13:21.755Z,4.61
2023-03-27T08:15:48.707Z,4.55
2023-03-27T08:18:22.153Z,4.52
2023-03-27T08:20:49.746Z,4.53
2023-03-27T08:23:17.014Z,4.56
2023-03-27T08:26:04.056Z,4.56
2023-03-27T08:28:37.819Z,4.58
2023-03-27T08:31:16.271Z,4.67
2023-03-27T08:33:44.683Z,4.79
2023-03-27T08:36:20.030Z,4.87
2023-03-27T08:38:47.356Z,4.95
2023-03-27T08:41:49.490Z,5.03
2023-03-27T08:44:26.507Z,5.13
2023-03-27T08:47:03.158Z,5.18
2023-03-27T08:49:41.599Z,5.19
2023-03-27T08:52:27.218Z,5.27
2023-03-27T08:55:12.345Z,5.40
2023-03-27T08:57:50.254Z,5.46
2023-03-27T09:00:27.121Z,5.53
2023-03-27T09:03:28.372Z,5.58
2023-03-27T09:06:23.377Z,5.66
2023-03-27T09:09:16.958Z,5.68
2023-03-27T09:12:25.880Z,5.79
2023-03-27T09:15:05.080Z,5.90
2023-03-27T09:18:03.996Z,6.03
2023-03-27T09:20:38.181Z,6.15
2023-03-27T09:23:19.827Z,6.32
2023-03-27T09:26:36.563Z,6.53
2023-03-27T09:29:22.322Z,6.72
2023-03-27T09:32:14.880Z,6.95
2023-03-27T09:34:43.547Z,7.11
2023-03-27T09:37:17.393Z,7.12
2023-03-27T09:39:52.773Z,7.23
2023-03-27T09:42:36.864Z,7.07
2023-03-27T09:45:07.990Z,6.70
2023-03-27T09:48:07.433Z,6.24
2023-03-27T09:50:47.285Z,5.97
2023-03-27T09:53:28.425Z,5.73
2023-03-27T09:56:12.728Z,5.60
2023-03-27T09:58:48.941Z,5.64
2023-03-27T10:01:23.233Z,5.77
2023-03-27T10:03:57.441Z,6.09
2023-03-27T10:06:44.521Z,6.55
2023-03-27T10:09:26.497Z,6.69
2023-03-27T10:12:23.549Z,6.63
2023-03-27T10:14:52.972Z,6.61
2023-03-27T10:17:39.476Z,6.64
2023-03-27T10:20:19.358Z,6.88
2023-03-27T10:23:09.467Z,6.97
2023-03-27T10:25:45.322Z,7.22
2023-03-27T10:28:28.314Z,7.93
2023-03-27T10:31:35.826Z,9.06
2023-03-27T10:34:32.481Z,9.20
2023-03-27T10:37:34.144Z,8.84
2023-03-27T10:40:27.715Z,8.78
2023-03-27T10:43:12.883Z,8.42
2023-03-27T10:45:57.836Z,7.80
2023-03-27T10:48:40.082Z,7.51
2023-03-27T10:51:46.397Z,7.20
2023-03-27T10:54:47.472Z,7.32
2023-03-27T10:57:21.241Z,7.33
2023-03-27T10:59:57.342Z,7.15
2023-03-27T11:02:47.849Z,6.90
2023-03-27T11:05:30.320Z,6.51
2023-03-27T11:08:33.475Z,6.00
2023-03-27T11:11:26.962Z,5.39
2023-03-27T11:14:02.417Z,5.21
2023-03-27T11:16:40.293Z,5.22
2023-03-27T11:19:36.076Z,5.55
2023-03-27T11:22:33.076Z,5.98
2023-03-27T11:25:13.986Z,6.66
2023-03-27T11:27:54.277Z,7.39
2023-03-27T11:30:49.346Z,8.03
2023-03-27T11:33:38.168Z,8.70
2023-03-27T11:36:45.874Z,9.29
2023-03-27T11:39:48.380Z,9.72
2023-03-27T11:42:24.250Z,9.96
2023-03-27T11:44:52.555Z,10.26
2023-03-27T11:47:57.263Z,10.82
2023-03-27T11:50:42.564Z,11.00
2023-03-27T11:53:46.737Z,11.23
2023-03-27T11:56:55.246Z,11.64
2023-03-27T12:00:16.359Z,11.30
2023-03-27T12:03:19.973Z,10.24
2023-03-27T12:05:57.406Z,9.08
2023-03-27T12:08:57.740Z,7.89
2023-03-27T12:11:30.851Z,6.98
2023-03-27T12:14:18.356Z,7.09
2023-03-27T12:17:03.218Z,7.54
2023-03-27T12:20:19.589Z,8.14
2023-03-27T12:23:04.041Z,8.75
2023-03-27T12:26:34.241Z,9.15
2023-03-27T12:29:50.870Z,9.79
2023-03-27T12:32:43.377Z,10.23
2023-03-27T12:35:21.220Z,10.53
2023-03-27T12:38:08.465Z,11.10
2023-03-27T12:40:37.392Z,11.55
2023-03-27T12:43:21.495Z,11.82
2023-03-27T12:46:23.963Z,11.75
2023-03-27T12:49:07.652Z,11.85
2023-03-27T12:52:05.224Z,12.21
2023-03-27T12:55:31.778Z,12.71
2023-03-27T12:58:01.918Z,13.36
2023-03-27T13:01:00.687Z,13.81
2023-03-27T13:04:42.734Z,13.88
2023-03-27T13:07:18.812Z,13.07
2023-03-27T13:10:08.296Z,11.63
2023-03-27T13:12:59.598Z,10.28
2023-03-27T13:16:06.606Z,8.69
2023-03-27T13:18:56.972Z,7.36
2023-03-27T13:21:40.091Z,6.25
2023-03-27T13:24:15.940Z,5.72
2023-03-27T13:27:17.772Z,5.86
2023-03-27T13:29:53.302Z,6.48
2023-03-27T13:32:41.177Z,7.18
2023-03-27T13:36:02.713Z,7.82
2023-03-27T13:38:53.663Z,8.37
2023-03-27T13:41:46.593Z,8.50
2023-03-27T13:44:30.400Z,8.19
2023-03-27T13:47:34.335Z,7.59
2023-03-27T13:50:43.181Z,7.03
2023-03-27T13:53:34.484Z,6.57
2023-03-27T13:56:40.697Z,6.36
2023-03-27T14:00:24.095Z,6.98
2023-03-27T14:03:48.585Z,7.90
2023-03-27T14:07:21.863Z,8.89
2023-03-27T14:10:25.240Z,9.75
2023-03-27T14:13:36.681Z,10.35
2023-03-27T14:16:36.249Z,10.82
2023-03-27T14:19:45.970Z,11.41
2023-03-27T14:22:37.832Z,11.48
2023-03-27T14:25:19.795Z,11.08
2023-03-27T14:27:57.351Z,11.15
2023-03-27T14:30:44.003Z,11.35
2023-03-27T14:33:28.651Z,11.27
2023-03-27T14:36:06.095Z,10.42
2023-03-27T14:38:37.339Z,8.92
2023-03-27T14:41:23.947Z,7.64
2023-03-27T14:43:56.933Z,6.65
2023-03-27T14:46:26.794Z,6.21
2023-03-27T14:48:59.796Z,5.94
2023-03-27T14:51:37.458Z,5.90
2023-03-27T14:54:27.076Z,6.40
2023-03-27T14:57:04.886Z,7.00
2023-03-27T14:59:42.960Z,7.52
2023-03-27T15:02:30.569Z,7.91
2023-03-27T15:05:12.317Z,7.86
2023-03-27T15:07:43.149Z,7.61
2023-03-27T15:10:31.645Z,7.35
2023-03-27T15:13:19.249Z,7.19
2023-03-27T15:15:56.186Z,7.20
2023-03-27T15:18:28.286Z,7.40
2023-03-27T15:21:01.840Z,7.74
2023-03-27T15:23:33.673Z,8.06
2023-03-27T15:26:18.993Z,8.38
2023-03-27T15:29:07.705Z,8.85
2023-03-27T15:31:37.096Z,9.39
2023-03-27T15:34:23.366Z,9.47
2023-03-27T15:37:00.105Z,9.10
2023-03-27T15:39:27.061Z,8.60
2023-03-27T15:42:13.751Z,8.10
2023-03-27T15:44:42.790Z,7.84
2023-03-27T15:47:30.092Z,7.90
2023-03-27T15:50:22.471Z,8.00
2023-03-27T15:52:57.980Z,8.20
2023-03-27T15:55:39.609Z,8.50
2023-03-27T15:58:21.712Z,8.65
2023-03-27T16:00:52.434Z,8.82
2023-03-27T16:03:26.156Z,9.05
2023-03-27T16:05:58.621Z,9.25
2023-03-27T16:08:30.904Z,9.47
2023-03-27T16:10:58.924Z,9.42
2023-03-27T16:13:58.896Z,9.05
2023-03-27T16:16:30.470Z,8.67
2023-03-27T16:19:03.862Z,8.51
2023-03-27T16:21:35.972Z,8.50
2023-03-27T16:24:04.729Z,8.59
2023-03-27T16:26:32.652Z,8.78
2023-03-27T16:29:05.120Z,8.64
2023-03-27T16:31:32.243Z,8.44
2023-03-27T16:33:59.108Z,8.35
2023-03-27T16:36:32.545Z,8.43
2023-03-27T16:38:59.591Z,8.50
2023-03-27T16:41:26.535Z,8.44
2023-03-27T16:43:53.372Z,8.48
2023-03-27T16:46:27.909Z,8.61
2023-03-27T16:48:56.820Z,8.53
2023-03-27T16:51:27.680Z,8.33
2023-03-27T16:53:55.242Z,8.13
2023-03-27T16:56:22.377Z,7.83
2023-03-27T16:58:49.431Z,7.55
2023-03-27T17:01:16.378Z,7.25
2023-03-27T17:03:43.255Z,6.99
2023-03-27T17:06:12.753Z,6.73
2023-03-27T17:08:39.710Z,6.52
2023-03-27T17:11:12.762Z,6.39
2023-03-27T17:13:43.468Z,6.23
2023-03-27T17:16:11.285Z,6.11
2023-03-27T17:18:38.099Z,6.00
2023-03-27T17:21:05.560Z,5.93
2023-03-27T17:23:32.817Z,5.85
2023-03-27T17:26:01.781Z,5.81
2023-03-27T17:28:29.925Z,5.76
2023-03-27T17:31:04.443Z,5.70
2023-03-27T17:33:33.003Z,5.62
2023-03-27T17:36:00.511Z,5.55
2023-03-27T17:38:28.967Z,5.48
2023-03-27T17:40:55.839Z,5.39
2023-03-27T17:43:22.704Z,5.34
2023-03-27T17:45:51.099Z,5.27
2023-03-27T17:48:18.201Z,5.19
2023-03-27T17:51:01.262Z,5.15
2023-03-27T17:53:37.121Z,5.07
2023-03-27T17:56:05.012Z,4.97
2023-03-27T17:58:34.250Z,4.88
2023-03-27T18:01:13.820Z,4.80
2023-03-27T18:03:40.921Z,4.72
2023-03-27T18:06:08.394Z,4.63
2023-03-27T18:08:35.871Z,4.61
2023-03-27T18:11:07.504Z,4.54
2023-03-27T18:13:34.636Z,4.52
2023-03-27T18:16:03.620Z,4.50
2023-03-27T18:18:33.000Z,4.45
2023-03-27T18:21:00.235Z,4.41
2023-03-27T18:23:27.201Z,4.36
2023-03-27T18:25:55.469Z,4.32
2023-03-27T18:28:23.818Z,4.28
2023-03-27T18:31:06.799Z,4.21
2023-03-27T18:33:34.076Z,4.16
2023-03-27T18:36:01.585Z,4.14
2023-03-27T18:38:29.705Z,4.13
2023-03-27T18:40:57.097Z,4.13
2023-03-27T18:43:24.310Z,4.08
2023-03-27T18:46:06.955Z,4.03
2023-03-27T18:48:35.092Z,4.00
2023-03-27T18:51:05.812Z,3.95
2023-03-27T18:53:32.882Z,3.93
2023-03-27T18:56:00.749Z,3.92
2023-03-27T18:58:29.400Z,3.91
2023-03-27T19:00:57.372Z,3.89
2023-03-27T19:03:30.341Z,3.85
2023-03-27T19:06:01.785Z,3.79
2023-03-27T19:08:28.902Z,3.76
2023-03-27T19:10:57.311Z,3.74
2023-03-27T19:13:43.066Z,3.73
2023-03-27T19:16:28.662Z,3.71
2023-03-27T19:19:13.558Z,3.64
2023-03-27T19:21:52.298Z,3.61
2023-03-27T19:24:31.757Z,3.57
2023-03-27T19:26:59.929Z,3.51
2023-03-27T19:29:27.187Z,3.45
2023-03-27T19:31:54.442Z,3.43
2023-03-27T19:34:32.680Z,3.38
2023-03-27T19:37:08.660Z,3.35
2023-03-27T19:39:35.486Z,3.35
2023-03-27T19:42:02.340Z,3.31
2023-03-27T19:44:29.401Z,3.28
2023-03-27T19:46:56.276Z,3.25
2023-03-27T19:49:23.173Z,3.22
2023-03-27T19:52:10.395Z,3.21
2023-03-27T19:54:37.202Z,3.19
2023-03-27T19:57:04.219Z,3.22
2023-03-27T19:59:31.387Z,3.18
2023-03-27T20:01:59.141Z,3.12
2023-03-27T20:04:26.320Z,3.06
2023-03-27T20:06:59.022Z,3.01
2023-03-27T20:09:25.958Z,2.99
2023-03-27T20:11:53.822Z,2.95
2023-03-27T20:14:20.909Z,2.94
2023-03-27T20:16:48.220Z,2.92
2023-03-27T20:19:16.801Z,2.93
2023-03-27T20:21:44.234Z,2.93
2023-03-27T20:24:17.351Z,2.92
2023-03-27T20:26:53.295Z,2.89
2023-03-27T20:29:24.302Z,2.85
2023-03-27T20:31:51.447Z,2.82
2023-03-27T20:34:19.438Z,2.78
2023-03-27T20:36:47.340Z,2.73
2023-03-27T20:39:46.854Z,2.65
2023-03-27T20:42:16.814Z,2.64
2023-03-27T20:44:45.844Z,2.62
2023-03-27T20:47:15.058Z,2.60
2023-03-27T20:49:45.365Z,2.56
2023-03-27T20:52:16.869Z,2.50
2023-03-27T20:54:44.453Z,2.49
2023-03-27T20:57:12.592Z,2.44
2023-03-27T20:59:39.443Z,2.43
2023-03-27T21:02:06.821Z,2.43
2023-03-27T21:04:33.860Z,2.43
2023-03-27T21:07:00.638Z,2.40
2023-03-27T21:09:27.857Z,2.38
2023-03-27T21:11:56.092Z,2.35
2023-03-27T21:14:23.495Z,2.29
2023-03-27T21:16:50.516Z,2.27
2023-03-27T21:19:20.291Z,2.27
2023-03-27T21:21:47.978Z,2.25
2023-03-27T21:24:15.606Z,2.20
2023-03-27T21:26:42.601Z,2.21
2023-03-27T21:29:10.902Z,2.17
2023-03-27T21:31:39.902Z,2.13
2023-03-27T21:34:07.403Z,2.09
2023-03-27T21:36:35.478Z,2.09
2023-03-27T21:39:02.468Z,2.06
2023-03-27T21:41:29.648Z,2.02
2023-03-27T21:43:56.568Z,2.01
2023-03-27T21:46:23.631Z,2.00
2023-03-27T21:48:51.105Z,2.04
2023-03-27T21:51:19.219Z,2.04
2023-03-27T21:53:46.070Z,2.02
2023-03-27T21:56:13.139Z,2.03
2023-03-27T21:58:40.448Z,2.00
2023-03-27T22:01:07.867Z,1.98
2023-03-27T22:03:34.991Z,1.96
2023-03-27T22:06:13.019Z,1.92
2023-03-27T22:08:43.077Z,1.87
2023-03-27T22:11:12.578Z,1.83
2023-03-27T22:13:40.049Z,1.81
2023-03-27T22:16:13.898Z,1.78
2023-03-27T22:18:41.851Z,1.75
2023-03-27T22:21:25.814Z,1.74
2023-03-27T22:23:54.997Z,1.70
2023-03-27T22:26:36.196Z,1.67
2023-03-27T22:29:04.570Z,1.65
2023-03-27T22:31:32.051Z,1.65
2023-03-27T22:33:59.083Z,1.66
2023-03-27T22:36:26.255Z,1.65
2023-03-27T22:38:53.169Z,1.62
2023-03-27T22:41:20.635Z,1.59
2023-03-27T22:43:49.509Z,1.52
2023-03-27T22:46:21.210Z,1.50
2023-03-27T22:48:53.024Z,1.53
2023-03-27T22:51:19.888Z,1.53
2023-03-27T22:53:46.729Z,1.51
2023-03-27T22:56:13.830Z,1.49
2023-03-27T22:58:40.855Z,1.45
2023-03-27T23:01:07.701Z,1.43
2023-03-27T23:03:34.667Z,1.40
2023-03-27T23:06:01.942Z,1.40
2023-03-27T23:08:29.085Z,1.39
2023-03-27T23:11:00.867Z,1.36
2023-03-27T23:13:31.559Z,1.31
2023-03-27T23:15:59.406Z,1.29
2023-03-27T23:18:27.272Z,1.29
2023-03-27T23:21:01.271Z,1.29
2023-03-27T23:23:32.582Z,1.30
2023-03-27T23:26:01.468Z,1.29
2023-03-27T23:28:37.583Z,1.28
2023-03-27T23:31:11.674Z,1.27
2023-03-27T23:33:45.182Z,1.24
2023-03-27T23:36:22.744Z,1.24
2023-03-27T23:38:51.564Z,1.24
2023-03-27T23:41:19.274Z,1.22
2023-03-27T23:43:46.918Z,1.19
2023-03-27T23:46:14.342Z,1.17
2023-03-27T23:48:43.184Z,1.17
2023-03-27T23:51:13.508Z,1.17
2023-03-27T23:53:40.944Z,1.15
2023-03-27T23:56:08.931Z,1.15
2023-03-27T23:58:37.198Z,1.14
